sensor_id;sensor_type;location;lat;lon;timestamp;pressure;altitude;pressure_sealevel;temperature;humidity
25130;BME280;13308;50.860;13.664;2023-03-01T07:07:40;97761.94;;;-5.90;100.00
25130;BME280;13308;50.860;13.664;2023-03-01T07:10:06;97764.06;;;-5.87;100.00
25130;BME280;13308;50.860;13.664;2023-03-01T07:12:32;97767.25;;;-5.85;100.00
25130;BME280;13308;50.860;13.664;2023-03-01T07:14:57;97769.25;;;-5.77;100.00
25130;BME280;13308;50.860;13.664;2023-03-01T07:17:22;97774.84;;;-5.73;100.00
25130;BME280;13308;50.860;13.664;2023-03-01T07:19:48;97770.31;;;-5.78;100.00
25130;BME280;13308;50.860;13.664;2023-03-01T07:22:13;97770.69;;;-5.66;100.00
25130;BME280;13308;50.860;13.664;2023-03-01T07:24:38;97770.63;;;-5.79;100.00
25130;BME280;13308;50.860;13.664;2023-03-01T07:27:04;97754.00;;;-5.63;100.00
25130;BME280;13308;50.860;13.664;2023-03-01T07:29:29;97757.94;;;-5.42;100.00
25130;BME280;13308;50.860;13.664;2023-03-01T07:31:55;97757.31;;;-5.34;100.00
25130;BME280;13308;50.860;13.664;2023-03-01T07:34:20;97753.03;;;-5.21;100.00
25130;BME280;13308;50.860;13.664;2023-03-01T07:36:45;97746.72;;;-5.44;100.00
25130;BME280;13308;50.860;13.664;2023-03-01T07:39:11;97746.88;;;-5.22;100.00
25130;BME280;13308;50.860;13.664;2023-03-01T07:41:36;97746.50;;;-5.15;100.00
25130;BME280;13308;50.860;13.664;2023-03-01T07:44:02;97752.78;;;-5.06;100.00
25130;BME280;13308;50.860;13.664;2023-03-01T07:46:27;97740.88;;;-4.87;100.00
25130;BME280;13308;50.860;13.664;2023-03-01T07:48:53;97747.69;;;-4.35;100.00
25130;BME280;13308;50.860;13.664;2023-03-01T07:51:18;97750.84;;;-4.20;100.00
25130;BME280;13308;50.860;13.664;2023-03-01T07:53:46;97754.41;;;-3.97;100.00
25130;BME280;13308;50.860;13.664;2023-03-01T07:56:13;97759.38;;;-3.91;100.00
25130;BME280;13308;50.860;13.664;2023-03-01T07:58:43;97746.56;;;-3.72;100.00
25130;BME280;13308;50.860;13.664;2023-03-01T08:01:12;97746.72;;;-3.55;100.00
25130;BME280;13308;50.860;13.664;2023-03-01T08:03:38;97746.34;;;-3.18;100.00
25130;BME280;13308;50.860;13.664;2023-03-01T08:06:05;97742.75;;;-2.83;99.19
25130;BME280;13308;50.860;13.664;2023-03-01T08:08:31;97744.41;;;-2.65;96.50
25130;BME280;13308;50.860;13.664;2023-03-01T08:10:58;97743.66;;;-2.18;95.33
25130;BME280;13308;50.860;13.664;2023-03-01T08:13:24;97748.91;;;-2.13;94.28
25130;BME280;13308;50.860;13.664;2023-03-01T08:15:50;97739.41;;;-1.85;95.03
25130;BME280;13308;50.860;13.664;2023-03-01T08:18:17;97731.00;;;-1.75;93.72
25130;BME280;13308;50.860;13.664;2023-03-01T08:20:42;97732.59;;;-1.40;93.14
25130;BME280;13308;50.860;13.664;2023-03-01T08:23:07;97725.34;;;-0.85;89.53
25130;BME280;13308;50.860;13.664;2023-03-01T08:25:33;97729.47;;;-0.79;88.10
25130;BME280;13308;50.860;13.664;2023-03-01T08:27:58;97719.78;;;-0.42;87.27
25130;BME280;13308;50.860;13.664;2023-03-01T08:30:24;97732.38;;;-0.09;84.17
25130;BME280;13308;50.860;13.664;2023-03-01T08:32:49;97723.34;;;-0.22;84.80
25130;BME280;13308;50.860;13.664;2023-03-01T08:35:15;97729.66;;;0.20;83.57
25130;BME280;13308;50.860;13.664;2023-03-01T08:37:41;97725.44;;;0.72;85.30
25130;BME280;13308;50.860;13.664;2023-03-01T08:40:07;97720.91;;;1.08;83.32
25130;BME280;13308;50.860;13.664;2023-03-01T08:42:35;97724.50;;;1.33;81.09
25130;BME280;13308;50.860;13.664;2023-03-01T08:45:01;97712.75;;;2.01;78.30
25130;BME280;13308;50.860;13.664;2023-03-01T08:47:26;97714.84;;;2.55;75.06
25130;BME280;13308;50.860;13.664;2023-03-01T08:49:52;97719.66;;;2.74;73.86
25130;BME280;13308;50.860;13.664;2023-03-01T08:52:19;97726.75;;;2.90;70.87
25130;BME280;13308;50.860;13.664;2023-03-01T08:54:44;97726.66;;;3.14;69.63
25130;BME280;13308;50.860;13.664;2023-03-01T08:57:09;97721.84;;;3.39;68.07
25130;BME280;13308;50.860;13.664;2023-03-01T08:59:35;97727.34;;;3.70;67.85
25130;BME280;13308;50.860;13.664;2023-03-01T09:02:08;97729.72;;;4.02;67.80
25130;BME280;13308;50.860;13.664;2023-03-01T09:04:35;97734.31;;;4.33;66.70
25130;BME280;13308;50.860;13.664;2023-03-01T09:07:01;97726.94;;;5.06;65.62
25130;BME280;13308;50.860;13.664;2023-03-01T09:09:26;97724.19;;;5.06;64.02
25130;BME280;13308;50.860;13.664;2023-03-01T09:11:51;97727.59;;;4.46;61.17
25130;BME280;13308;50.860;13.664;2023-03-01T09:14:16;97723.41;;;4.33;64.00
25130;BME280;13308;50.860;13.664;2023-03-01T09:16:42;97725.50;;;4.74;63.35
25130;BME280;13308;50.860;13.664;2023-03-01T09:19:08;97713.81;;;4.23;63.22
25130;BME280;13308;50.860;13.664;2023-03-01T09:21:33;97716.94;;;4.56;65.10
25130;BME280;13308;50.860;13.664;2023-03-01T09:23:58;97711.88;;;4.39;63.90
25130;BME280;13308;50.860;13.664;2023-03-01T09:26:24;97705.56;;;4.20;63.62
25130;BME280;13308;50.860;13.664;2023-03-01T09:28:52;97708.28;;;4.54;62.58
25130;BME280;13308;50.860;13.664;2023-03-01T09:31:20;97717.28;;;4.74;62.22
25130;BME280;13308;50.860;13.664;2023-03-01T09:33:47;97709.19;;;5.15;62.11
25130;BME280;13308;50.860;13.664;2023-03-01T09:36:21;97711.03;;;5.53;61.60
25130;BME280;13308;50.860;13.664;2023-03-01T09:38:47;97711.25;;;6.08;58.85
25130;BME280;13308;50.860;13.664;2023-03-01T09:44:31;97716.25;;;5.39;59.91
25130;BME280;13308;50.860;13.664;2023-03-01T09:46:58;97720.53;;;5.59;60.67
25130;BME280;13308;50.860;13.664;2023-03-01T09:49:27;97719.59;;;6.41;60.09
25130;BME280;13308;50.860;13.664;2023-03-01T09:52:19;97714.75;;;7.53;56.76
25130;BME280;13308;50.860;13.664;2023-03-01T09:54:55;97721.97;;;7.68;58.13
25130;BME280;13308;50.860;13.664;2023-03-01T09:57:37;97719.31;;;7.42;57.14
25130;BME280;13308;50.860;13.664;2023-03-01T10:02:52;97704.81;;;7.81;57.49
25130;BME280;13308;50.860;13.664;2023-03-01T10:05:31;97701.38;;;8.35;57.41
25130;BME280;13308;50.860;13.664;2023-03-01T10:08:14;97712.41;;;8.38;55.42
25130;BME280;13308;50.860;13.664;2023-03-01T10:10:46;97709.53;;;8.24;56.07
25130;BME280;13308;50.860;13.664;2023-03-01T10:13:43;97707.81;;;8.59;55.13
25130;BME280;13308;50.860;13.664;2023-03-01T10:16:16;97712.63;;;8.73;56.44
25130;BME280;13308;50.860;13.664;2023-03-01T10:18:46;97719.72;;;8.77;54.34
25130;BME280;13308;50.860;13.664;2023-03-01T10:21:17;97725.28;;;8.91;55.13
25130;BME280;13308;50.860;13.664;2023-03-01T10:23:44;97731.03;;;9.44;53.80
25130;BME280;13308;50.860;13.664;2023-03-01T10:26:35;97726.25;;;9.30;54.28
25130;BME280;13308;50.860;13.664;2023-03-01T10:29:08;97719.50;;;9.10;54.22
25130;BME280;13308;50.860;13.664;2023-03-01T10:31:46;97720.94;;;8.87;54.26
25130;BME280;13308;50.860;13.664;2023-03-01T10:34:15;97711.78;;;8.65;55.33
25130;BME280;13308;50.860;13.664;2023-03-01T10:36:41;97694.63;;;8.22;55.52
25130;BME280;13308;50.860;13.664;2023-03-01T10:39:19;97691.97;;;8.39;56.52
25130;BME280;13308;50.860;13.664;2023-03-01T10:41:59;97698.81;;;8.12;57.15
25130;BME280;13308;50.860;13.664;2023-03-01T10:47:03;97681.69;;;8.29;56.81
25130;BME280;13308;50.860;13.664;2023-03-01T10:49:29;97683.41;;;8.01;56.81
25130;BME280;13308;50.860;13.664;2023-03-01T10:51:54;97689.91;;;7.82;58.31
25130;BME280;13308;50.860;13.664;2023-03-01T10:56:53;97682.44;;;8.23;57.90
25130;BME280;13308;50.860;13.664;2023-03-01T10:59:36;97685.50;;;8.75;56.57
25130;BME280;13308;50.860;13.664;2023-03-01T11:04:35;97685.75;;;8.49;56.42
25130;BME280;13308;50.860;13.664;2023-03-01T11:07:02;97685.03;;;8.62;57.17
25130;BME280;13308;50.860;13.664;2023-03-01T11:09:32;97683.13;;;8.73;56.74
25130;BME280;13308;50.860;13.664;2023-03-01T11:12:03;97679.59;;;8.69;56.32
25130;BME280;13308;50.860;13.664;2023-03-01T11:14:36;97680.47;;;8.84;56.12
25130;BME280;13308;50.860;13.664;2023-03-01T11:17:28;97680.13;;;8.99;55.77
25130;BME280;13308;50.860;13.664;2023-03-01T11:20:15;97672.78;;;9.31;55.37
25130;BME280;13308;50.860;13.664;2023-03-01T11:22:49;97687.59;;;8.95;54.67
25130;BME280;13308;50.860;13.664;2023-03-01T11:25:17;97684.13;;;9.19;55.26
25130;BME280;13308;50.860;13.664;2023-03-01T11:27:45;97686.00;;;8.94;55.57
25130;BME280;13308;50.860;13.664;2023-03-01T11:30:23;97679.78;;;9.04;54.70
25130;BME280;13308;50.860;13.664;2023-03-01T11:33:01;97688.47;;;9.20;54.74
25130;BME280;13308;50.860;13.664;2023-03-01T11:35:29;97671.47;;;8.97;54.16
25130;BME280;13308;50.860;13.664;2023-03-01T11:38:16;97681.03;;;9.38;54.46
25130;BME280;13308;50.860;13.664;2023-03-01T11:40:49;97686.16;;;9.29;54.69
25130;BME280;13308;50.860;13.664;2023-03-01T11:43:26;97686.53;;;9.31;53.94
25130;BME280;13308;50.860;13.664;2023-03-01T11:51:53;97686.63;;;9.66;54.96
25130;BME280;13308;50.860;13.664;2023-03-01T11:57:38;97683.91;;;10.22;53.29
25130;BME280;13308;50.860;13.664;2023-03-01T12:00:36;97692.19;;;10.22;52.35
25130;BME280;13308;50.860;13.664;2023-03-01T12:11:41;97679.53;;;10.67;52.38
25130;BME280;13308;50.860;13.664;2023-03-01T12:20:17;97674.31;;;10.93;51.06
25130;BME280;13308;50.860;13.664;2023-03-01T12:23:07;97667.91;;;11.17;50.56
25130;BME280;13308;50.860;13.664;2023-03-01T12:25:49;97656.03;;;11.27;49.85
25130;BME280;13308;50.860;13.664;2023-03-01T12:28:31;97660.78;;;11.23;49.68
25130;BME280;13308;50.860;13.664;2023-03-01T12:39:38;97638.63;;;11.37;49.82
25130;BME280;13308;50.860;13.664;2023-03-01T12:42:30;97638.50;;;11.62;48.97
25130;BME280;13308;50.860;13.664;2023-03-01T12:50:24;97646.81;;;11.55;48.98
25130;BME280;13308;50.860;13.664;2023-03-01T12:52:56;97642.38;;;11.71;47.26
25130;BME280;13308;50.860;13.664;2023-03-01T12:55:33;97635.97;;;11.85;48.78
25130;BME280;13308;50.860;13.664;2023-03-01T13:04:14;97634.31;;;11.94;46.84
25130;BME280;13308;50.860;13.664;2023-03-01T13:06:55;97628.59;;;12.15;46.89
25130;BME280;13308;50.860;13.664;2023-03-01T13:09:31;97624.66;;;12.16;47.49
25130;BME280;13308;50.860;13.664;2023-03-01T13:11:58;97620.88;;;11.93;47.78
25130;BME280;13308;50.860;13.664;2023-03-01T13:16:50;97624.91;;;12.69;46.65
25130;BME280;13308;50.860;13.664;2023-03-01T13:19:21;97632.38;;;13.09;45.52
25130;BME280;13308;50.860;13.664;2023-03-01T13:21:49;97629.66;;;13.32;46.27
25130;BME280;13308;50.860;13.664;2023-03-01T13:24:41;97632.19;;;13.23;45.27
25130;BME280;13308;50.860;13.664;2023-03-01T13:29:46;97631.88;;;13.44;44.34
25130;BME280;13308;50.860;13.664;2023-03-01T13:37:40;97624.69;;;13.20;44.07
25130;BME280;13308;50.860;13.664;2023-03-01T13:42:53;97631.28;;;13.30;43.56
25130;BME280;13308;50.860;13.664;2023-03-01T13:45:40;97634.75;;;14.40;42.61
25130;BME280;13308;50.860;13.664;2023-03-01T13:48:15;97627.66;;;13.89;42.62
25130;BME280;13308;50.860;13.664;2023-03-01T13:50:49;97640.00;;;14.34;41.93
25130;BME280;13308;50.860;13.664;2023-03-01T13:53:21;97633.38;;;14.28;42.05
25130;BME280;13308;50.860;13.664;2023-03-01T13:55:51;97638.59;;;13.73;42.33
25130;BME280;13308;50.860;13.664;2023-03-01T13:58:24;97635.66;;;14.07;42.40
25130;BME280;13308;50.860;13.664;2023-03-01T14:01:06;97629.75;;;14.93;41.22
25130;BME280;13308;50.860;13.664;2023-03-01T14:03:34;97618.03;;;14.20;41.99
25130;BME280;13308;50.860;13.664;2023-03-01T14:06:12;97612.50;;;14.63;42.04
25130;BME280;13308;50.860;13.664;2023-03-01T14:08:40;97616.19;;;14.56;41.57
25130;BME280;13308;50.860;13.664;2023-03-01T14:19:14;97604.50;;;16.42;39.80
25130;BME280;13308;50.860;13.664;2023-03-01T14:21:41;97613.03;;;15.87;38.98
25130;BME280;13308;50.860;13.664;2023-03-01T14:24:16;97605.56;;;14.51;41.36
25130;BME280;13308;50.860;13.664;2023-03-01T14:26:42;97599.41;;;13.45;42.13
25130;BME280;13308;50.860;13.664;2023-03-01T14:29:26;97604.09;;;13.51;42.20
25130;BME280;13308;50.860;13.664;2023-03-01T14:31:52;97596.13;;;11.79;45.50
25130;BME280;13308;50.860;13.664;2023-03-01T14:34:22;97585.06;;;10.31;48.21
25130;BME280;13308;50.860;13.664;2023-03-01T14:36:48;97574.47;;;9.91;48.79
25130;BME280;13308;50.860;13.664;2023-03-01T14:39:24;97574.06;;;9.93;50.15
25130;BME280;13308;50.860;13.664;2023-03-01T14:41:51;97582.31;;;10.17;50.81
25130;BME280;13308;50.860;13.664;2023-03-01T14:44:23;97572.97;;;11.62;47.30
25130;BME280;13308;50.860;13.664;2023-03-01T14:46:52;97569.13;;;11.97;47.08
25130;BME280;13308;50.860;13.664;2023-03-01T14:49:21;97573.88;;;11.93;46.52
25130;BME280;13308;50.860;13.664;2023-03-01T14:51:54;97551.91;;;11.21;47.03
25130;BME280;13308;50.860;13.664;2023-03-01T14:54:44;97558.13;;;11.35;47.50
25130;BME280;13308;50.860;13.664;2023-03-01T14:57:25;97566.50;;;10.49;47.96
25130;BME280;13308;50.860;13.664;2023-03-01T14:59:53;97562.66;;;9.98;49.39
25130;BME280;13308;50.860;13.664;2023-03-01T15:02:22;97544.59;;;9.62;50.20
25130;BME280;13308;50.860;13.664;2023-03-01T15:04:51;97550.09;;;9.34;52.55
25130;BME280;13308;50.860;13.664;2023-03-01T15:07:17;97552.03;;;9.05;52.45
25130;BME280;13308;50.860;13.664;2023-03-01T15:09:43;97547.16;;;8.53;53.14
25130;BME280;13308;50.860;13.664;2023-03-01T15:14:52;97539.41;;;8.05;54.20
25130;BME280;13308;50.860;13.664;2023-03-01T15:19:55;97550.69;;;7.36;55.68
25130;BME280;13308;50.860;13.664;2023-03-01T15:22:20;97549.19;;;7.42;55.56
25130;BME280;13308;50.860;13.664;2023-03-01T15:24:50;97541.09;;;7.12;56.99
25130;BME280;13308;50.860;13.664;2023-03-01T15:27:20;97539.66;;;6.85;56.86
25130;BME280;13308;50.860;13.664;2023-03-01T15:29:52;97536.56;;;6.54;58.16
25130;BME280;13308;50.860;13.664;2023-03-01T15:32:35;97531.84;;;6.51;57.89
25130;BME280;13308;50.860;13.664;2023-03-01T15:35:37;97529.78;;;6.11;59.95
25130;BME280;13308;50.860;13.664;2023-03-01T15:38:04;97538.91;;;5.93;59.89
25130;BME280;13308;50.860;13.664;2023-03-01T15:40:30;97532.81;;;6.03;59.45
25130;BME280;13308;50.860;13.664;2023-03-01T15:43:03;97534.28;;;5.97;59.39
25130;BME280;13308;50.860;13.664;2023-03-01T15:45:31;97524.75;;;6.17;59.01
25130;BME280;13308;50.860;13.664;2023-03-01T15:48:03;97529.75;;;5.82;59.23
25130;BME280;13308;50.860;13.664;2023-03-01T15:50:33;97526.16;;;5.26;62.96
25130;BME280;13308;50.860;13.664;2023-03-01T15:53:00;97518.03;;;4.84;63.83
25130;BME280;13308;50.860;13.664;2023-03-01T15:55:29;97527.41;;;4.42;68.24
25130;BME280;13308;50.860;13.664;2023-03-01T15:58:00;97515.41;;;4.08;70.22
25130;BME280;13308;50.860;13.664;2023-03-01T16:00:28;97519.50;;;3.99;73.23
25130;BME280;13308;50.860;13.664;2023-03-01T16:02:54;97524.97;;;3.99;70.37
25130;BME280;13308;50.860;13.664;2023-03-01T16:05:23;97516.53;;;3.69;72.51
25130;BME280;13308;50.860;13.664;2023-03-01T16:07:50;97525.31;;;3.63;70.08
25130;BME280;13308;50.860;13.664;2023-03-01T16:10:16;97530.78;;;3.63;69.34
25130;BME280;13308;50.860;13.664;2023-03-01T16:12:41;97525.97;;;3.56;70.08
25130;BME280;13308;50.860;13.664;2023-03-01T16:17:45;97522.50;;;3.25;72.83
25130;BME280;13308;50.860;13.664;2023-03-01T16:20:16;97529.13;;;3.08;74.81
25130;BME280;13308;50.860;13.664;2023-03-01T16:22:42;97525.16;;;3.06;73.12
25130;BME280;13308;50.860;13.664;2023-03-01T16:25:09;97517.69;;;2.87;75.41
25130;BME280;13308;50.860;13.664;2023-03-01T16:27:35;97517.69;;;2.72;76.20
25130;BME280;13308;50.860;13.664;2023-03-01T16:30:00;97520.16;;;2.61;75.69
25130;BME280;13308;50.860;13.664;2023-03-01T16:32:25;97516.16;;;2.43;77.69
25130;BME280;13308;50.860;13.664;2023-03-01T16:34:51;97521.63;;;2.16;79.42
25130;BME280;13308;50.860;13.664;2023-03-01T16:37:16;97517.91;;;2.08;81.57
25130;BME280;13308;50.860;13.664;2023-03-01T16:39:42;97516.53;;;1.87;84.15
25130;BME280;13308;50.860;13.664;2023-03-01T16:42:07;97519.97;;;1.72;83.46
25130;BME280;13308;50.860;13.664;2023-03-01T16:44:32;97518.19;;;1.52;85.90
25130;BME280;13308;50.860;13.664;2023-03-01T16:46:58;97517.78;;;1.38;83.79
25130;BME280;13308;50.860;13.664;2023-03-01T16:49:23;97516.19;;;1.13;85.26
25130;BME280;13308;50.860;13.664;2023-03-01T16:51:48;97514.84;;;1.07;85.72
25130;BME280;13308;50.860;13.664;2023-03-01T16:54:13;97517.56;;;0.95;86.96
25130;BME280;13308;50.860;13.664;2023-03-01T16:56:39;97527.94;;;0.69;87.17
25130;BME280;13308;50.860;13.664;2023-03-01T16:59:05;97527.28;;;0.60;86.37
25130;BME280;13308;50.860;13.664;2023-03-01T17:01:31;97522.72;;;0.52;87.82
25130;BME280;13308;50.860;13.664;2023-03-01T17:04:02;97530.53;;;0.65;88.38
25130;BME280;13308;50.860;13.664;2023-03-01T17:06:28;97532.53;;;0.44;89.66
25130;BME280;13308;50.860;13.664;2023-03-01T17:08:53;97542.91;;;0.30;94.14
25130;BME280;13308;50.860;13.664;2023-03-01T17:11:19;97539.13;;;0.23;94.31
25130;BME280;13308;50.860;13.664;2023-03-01T17:13:45;97545.81;;;0.25;95.82
25130;BME280;13308;50.860;13.664;2023-03-01T17:16:13;97549.53;;;0.21;98.33
25130;BME280;13308;50.860;13.664;2023-03-01T17:18:39;97549.09;;;0.19;100.00
25130;BME280;13308;50.860;13.664;2023-03-01T17:21:06;97547.72;;;0.13;100.00
25130;BME280;13308;50.860;13.664;2023-03-01T17:23:32;97539.09;;;0.11;100.00
25130;BME280;13308;50.860;13.664;2023-03-01T17:25:58;97544.38;;;0.07;100.00
25130;BME280;13308;50.860;13.664;2023-03-01T17:28:26;97538.59;;;-0.03;100.00
25130;BME280;13308;50.860;13.664;2023-03-01T17:30:52;97535.75;;;-0.07;100.00
25130;BME280;13308;50.860;13.664;2023-03-01T17:33:18;97526.69;;;-0.11;100.00
25130;BME280;13308;50.860;13.664;2023-03-01T17:35:44;97530.00;;;-0.05;100.00
25130;BME280;13308;50.860;13.664;2023-03-01T17:38:13;97534.09;;;0.01;100.00
25130;BME280;13308;50.860;13.664;2023-03-01T17:40:40;97535.00;;;0.05;100.00
25130;BME280;13308;50.860;13.664;2023-03-01T17:43:06;97537.41;;;-0.14;100.00
25130;BME280;13308;50.860;13.664;2023-03-01T17:45:31;97531.59;;;-0.24;100.00
25130;BME280;13308;50.860;13.664;2023-03-01T17:47:56;97537.41;;;-0.34;100.00
25130;BME280;13308;50.860;13.664;2023-03-01T17:50:22;97540.00;;;-0.38;100.00
25130;BME280;13308;50.860;13.664;2023-03-01T17:52:47;97539.06;;;-0.42;100.00
25130;BME280;13308;50.860;13.664;2023-03-01T17:55:14;97542.03;;;-0.55;100.00
25130;BME280;13308;50.860;13.664;2023-03-01T17:57:40;97537.13;;;-0.62;100.00
25130;BME280;13308;50.860;13.664;2023-03-01T18:00:09;97542.41;;;-0.65;100.00
25130;BME280;13308;50.860;13.664;2023-03-01T18:02:36;97539.38;;;-0.64;100.00
25130;BME280;13308;50.860;13.664;2023-03-01T18:05:02;97539.13;;;-0.71;100.00
25130;BME280;13308;50.860;13.664;2023-03-01T18:07:28;97542.72;;;-0.67;100.00
25130;BME280;13308;50.860;13.664;2023-03-01T18:09:54;97553.25;;;-0.65;100.00
25130;BME280;13308;50.860;13.664;2023-03-01T18:12:20;97559.47;;;-0.65;100.00
25130;BME280;13308;50.860;13.664;2023-03-01T18:14:45;97552.94;;;-0.64;100.00
25130;BME280;13308;50.860;13.664;2023-03-01T18:17:12;97550.09;;;-0.67;100.00
25130;BME280;13308;50.860;13.664;2023-03-01T18:19:38;97541.34;;;-0.73;100.00
25130;BME280;13308;50.860;13.664;2023-03-01T18:22:06;97543.91;;;-0.76;100.00
25130;BME280;13308;50.860;13.664;2023-03-01T18:24:32;97544.53;;;-0.71;100.00
25130;BME280;13308;50.860;13.664;2023-03-01T18:26:58;97540.84;;;-0.66;100.00
25130;BME280;13308;50.860;13.664;2023-03-01T18:29:23;97544.22;;;-0.78;100.00
25130;BME280;13308;50.860;13.664;2023-03-01T18:31:49;97537.56;;;-0.80;100.00
25130;BME280;13308;50.860;13.664;2023-03-01T18:34:15;97534.44;;;-0.91;100.00
25130;BME280;13308;50.860;13.664;2023-03-01T18:36:40;97536.28;;;-1.03;100.00
25130;BME280;13308;50.860;13.664;2023-03-01T18:39:06;97526.91;;;-1.06;100.00
25130;BME280;13308;50.860;13.664;2023-03-01T18:41:32;97530.09;;;-1.12;100.00
25130;BME280;13308;50.860;13.664;2023-03-01T18:43:58;97528.69;;;-1.18;100.00
25130;BME280;13308;50.860;13.664;2023-03-01T18:46:24;97522.78;;;-1.12;100.00
25130;BME280;13308;50.860;13.664;2023-03-01T18:48:51;97524.81;;;-1.09;100.00
25130;BME280;13308;50.860;13.664;2023-03-01T18:51:20;97521.47;;;-1.06;100.00
25130;BME280;13308;50.860;13.664;2023-03-01T18:53:46;97523.41;;;-1.15;100.00
25130;BME280;13308;50.860;13.664;2023-03-01T18:56:11;97514.25;;;-1.31;100.00
25130;BME280;13308;50.860;13.664;2023-03-01T18:58:37;97525.34;;;-1.15;100.00
25130;BME280;13308;50.860;13.664;2023-03-01T19:01:04;97518.00;;;-1.15;100.00
25130;BME280;13308;50.860;13.664;2023-03-01T19:03:33;97514.06;;;-1.26;100.00
25130;BME280;13308;50.860;13.664;2023-03-01T19:05:58;97512.66;;;-1.32;100.00
25130;BME280;13308;50.860;13.664;2023-03-01T19:08:26;97516.50;;;-1.33;100.00
25130;BME280;13308;50.860;13.664;2023-03-01T19:10:56;97521.28;;;-1.30;100.00
25130;BME280;13308;50.860;13.664;2023-03-01T19:13:22;97520.97;;;-1.37;100.00
25130;BME280;13308;50.860;13.664;2023-03-01T19:15:48;97514.84;;;-1.54;100.00
25130;BME280;13308;50.860;13.664;2023-03-01T19:18:13;97520.25;;;-1.54;100.00
